Belmont, North Carolina
Current Conditions -  °F | °C
As of 8:52 PM on Sunday 25 Jan 2015 (Local Time) from KCLT Reporting Station
Broken Clouds Broken Clouds  
Wind Chill: 50°   Ceiling: 11000
Heat Index: 50°   Visibility: 10mi
Dew Point: 30°   Wind: 7mph
Humidity: 46%   Direction: 160°SSE
Pressure: 29.79"   Gusts: NA
Location:  35.24°N, 81.04°W
Report Text: KCLT 260152Z 16006KT 10SM BKN110 10/M01 A2979 RMK AO2 SLP090 T01001011 $
Loading
Personal Weather Stations






























Interactive Weather Map New forecast layout! Learn more

10-Day Weather Forecast

Advertisements
Track Severe Weather on mobile